Time;durP1;ratioP1;P1;durP2;ratioP2;P2;SDS_P1;SDS_P2;PMS_P1;PMS_P2;Temp;Humidity;BMP_temperature;BMP_pressure;BME280_temperature;BME280_humidity;BME280_pressure;Samples;Min_cycle;Max_cycle;Signal;HPM_P1;HPM_P2
2020/12/24 00:00:48;;;;;;;13.45;12.15;;;8.90;99.90;;;;;;5066078;28;20207;-83
2020/12/24 00:03:14;;;;;;;12.88;11.68;;;8.90;99.90;;;;;;5078285;28;20190;-84
2020/12/24 00:05:41;;;;;;;14.73;13.20;;;8.90;99.90;;;;;;5076839;28;20224;-84
2020/12/24 00:08:07;;;;;;;15.35;13.77;;;8.90;99.90;;;;;;5075805;28;20217;-84
2020/12/24 00:10:35;;;;;;;14.70;13.20;;;8.90;99.90;;;;;;5075449;28;20214;-84
2020/12/24 00:13:01;;;;;;;14.93;13.45;;;8.90;99.90;;;;;;5075599;28;20298;-84
2020/12/24 00:15:28;;;;;;;15.93;14.32;;;8.90;99.90;;;;;;5074655;28;20231;-83
2020/12/24 00:17:55;;;;;;;14.43;12.93;;;8.90;99.90;;;;;;5074276;28;20203;-83
2020/12/24 00:20:21;;;;;;;16.73;15.05;;;8.80;99.90;;;;;;5057358;28;20215;-85
2020/12/24 00:22:48;;;;;;;16.17;14.48;;;8.80;99.90;;;;;;5059230;28;20212;-82
2020/12/24 00:25:28;;;;;;;16.42;14.73;;;8.80;99.90;;;;;;5059850;28;20223;-85
2020/12/24 00:27:56;;;;;;;16.08;14.38;;;8.70;99.90;;;;;;5056359;28;20203;-84
2020/12/24 00:30:22;;;;;;;15.13;13.73;;;8.70;99.90;;;;;;5047197;28;20227;-83
2020/12/24 00:32:49;;;;;;;13.80;12.43;;;8.60;99.90;;;;;;5047928;28;20214;-83
2020/12/24 00:35:15;;;;;;;13.55;12.25;;;8.60;99.90;;;;;;5048618;28;20234;-84
2020/12/24 00:37:42;;;;;;;13.68;12.38;;;8.60;99.90;;;;;;5049505;28;20218;-84
2020/12/24 00:40:13;;;;;;;14.95;13.48;;;8.60;99.90;;;;;;5049397;28;20207;-82
2020/12/24 00:42:41;;;;;;;15.02;12.65;;;8.70;99.90;;;;;;5052553;28;20170;-84
2020/12/24 00:45:09;;;;;;;17.50;15.02;;;8.60;99.90;;;;;;5055949;28;20234;-83
2020/12/24 00:47:36;;;;;;;16.00;14.00;;;8.60;99.90;;;;;;5071938;28;20199;-83
2020/12/24 00:50:04;;;;;;;16.48;14.82;;;8.60;99.90;;;;;;5077072;28;20196;-84
2020/12/24 00:52:32;;;;;;;15.32;13.73;;;8.60;99.90;;;;;;5077032;28;20215;-85
2020/12/24 00:55:09;;;;;;;15.00;13.50;;;8.60;99.90;;;;;;5074024;28;20219;-84
2020/12/24 00:57:36;;;;;;;14.95;13.45;;;8.60;99.90;;;;;;5071316;28;20203;-83
2020/12/24 01:00:05;;;;;;;14.73;13.23;;;8.60;99.90;;;;;;5069077;28;20290;-84
2020/12/24 01:02:34;;;;;;;16.88;14.82;;;8.60;99.90;;;;;;5076582;28;20202;-83
2020/12/24 01:05:04;;;;;;;12.32;11.07;;;8.60;99.90;;;;;;5079272;28;20222;-84
2020/12/24 01:07:34;;;;;;;15.75;14.15;;;8.60;99.90;;;;;;5079119;28;20201;-84
2020/12/24 01:10:01;;;;;;;14.45;12.90;;;8.50;99.90;;;;;;5079066;28;20190;-84
2020/12/24 01:12:27;;;;;;;13.95;12.65;;;8.50;99.90;;;;;;5078754;28;20203;-84
2020/12/24 01:14:54;;;;;;;13.98;12.57;;;8.50;99.90;;;;;;5078593;28;20257;-83
2020/12/24 01:17:21;;;;;;;14.60;12.95;;;8.60;99.90;;;;;;5077576;28;20199;-85
2020/12/24 01:19:51;;;;;;;14.98;13.32;;;8.60;99.90;;;;;;5078587;28;20182;-83
2020/12/24 01:22:18;;;;;;;14.07;12.60;;;8.60;99.90;;;;;;5076426;28;20201;-83
2020/12/24 01:24:45;;;;;;;13.52;11.63;;;8.50;99.90;;;;;;5075958;28;20215;-84
2020/12/24 01:27:11;;;;;;;14.73;11.68;;;8.50;99.90;;;;;;5074947;28;20188;-84
2020/12/24 01:29:38;;;;;;;11.70;10.52;;;8.40;99.90;;;;;;5072696;28;20210;-83
2020/12/24 01:32:05;;;;;;;12.43;11.13;;;8.40;99.90;;;;;;5073329;28;20199;-83
2020/12/24 01:34:31;;;;;;;10.50;9.45;;;8.30;99.90;;;;;;5077087;28;20253;-83
2020/12/24 01:37:02;;;;;;;9.10;8.20;;;8.30;99.90;;;;;;5064105;28;20199;-82
2020/12/24 01:39:29;;;;;;;8.65;7.75;;;8.30;99.90;;;;;;5063309;28;20212;-83
2020/12/24 01:41:56;;;;;;;9.05;8.15;;;8.30;99.90;;;;;;5066154;28;20230;-82
2020/12/24 01:44:23;;;;;;;9.65;8.75;;;8.40;99.90;;;;;;5067088;28;20286;-83
2020/12/24 01:46:50;;;;;;;9.55;8.70;;;8.30;99.90;;;;;;5064926;28;20309;-83
2020/12/24 01:49:17;;;;;;;11.55;9.45;;;8.30;99.90;;;;;;5057810;28;20278;-82
2020/12/24 01:51:49;;;;;;;10.23;8.90;;;8.30;99.90;;;;;;5066809;28;20218;-83
2020/12/24 01:54:19;;;;;;;10.60;9.48;;;8.20;99.90;;;;;;5067740;28;20226;-84
2020/12/24 01:56:46;;;;;;;6.68;6.07;;;8.00;99.90;;;;;;5067678;28;20265;-84
2020/12/24 01:59:15;;;;;;;7.85;7.05;;;7.90;99.90;;;;;;5075628;28;20193;-83
2020/12/24 02:01:47;;;;;;;7.90;7.15;;;7.80;99.90;;;;;;5077257;28;20190;-84
2020/12/24 02:04:14;;;;;;;6.88;6.18;;;7.70;99.90;;;;;;5076903;28;20240;-83
2020/12/24 02:06:41;;;;;;;6.05;5.45;;;7.60;99.90;;;;;;5077126;28;20198;-84
2020/12/24 02:09:08;;;;;;;5.07;4.57;;;7.60;99.90;;;;;;5076890;28;20214;-83
2020/12/24 02:11:39;;;;;;;4.57;4.15;;;7.60;99.90;;;;;;5076957;28;20195;-83
2020/12/24 02:14:06;;;;;;;5.82;4.35;;;7.50;99.90;;;;;;5076561;28;20240;-82
2020/12/24 02:16:33;;;;;;;8.75;3.78;;;7.60;99.90;;;;;;5065846;28;20233;-83
2020/12/24 02:21:42;;;;;;;3.70;2.97;;;7.60;99.90;;;;;;5063346;28;20217;-83
2020/12/24 02:24:12;;;;;;;3.97;3.28;;;7.50;99.90;;;;;;5063648;28;20198;-83
2020/12/24 02:26:38;;;;;;;3.40;3.20;;;7.50;99.90;;;;;;5069857;28;20213;-83
2020/12/24 02:29:05;;;;;;;3.35;3.03;;;7.40;99.90;;;;;;5063404;28;20205;-84
2020/12/24 02:31:31;;;;;;;4.30;2.67;;;7.40;99.90;;;;;;5062744;28;20201;-83
2020/12/24 02:34:15;;;;;;;2.38;2.17;;;7.30;99.90;;;;;;5065264;28;20228;-83
2020/12/24 02:36:42;;;;;;;3.47;3.28;;;7.30;99.90;;;;;;5075446;28;20223;-83
2020/12/24 02:39:29;;;;;;;2.80;2.33;;;7.30;99.90;;;;;;5076628;28;20202;-83
2020/12/24 02:41:59;;;;;;;2.70;2.50;;;7.20;99.90;;;;;;5076711;28;20193;-84
2020/12/24 02:44:28;;;;;;;3.92;2.40;;;7.20;99.90;;;;;;5073311;28;20234;-83
2020/12/24 02:46:55;;;;;;;3.20;2.90;;;7.30;99.90;;;;;;5052968;28;640492;-84
2020/12/24 02:49:22;;;;;;;4.00;2.88;;;7.20;99.90;;;;;;5074298;28;20201;-82
2020/12/24 02:51:49;;;;;;;5.03;2.45;;;7.20;99.90;;;;;;5072702;28;20201;-83
2020/12/24 02:54:16;;;;;;;2.95;2.00;;;7.20;99.90;;;;;;5072962;28;20216;-83
2020/12/24 02:56:42;;;;;;;2.55;2.35;;;7.20;99.90;;;;;;5072505;28;20208;-83
2020/12/24 02:59:16;;;;;;;2.67;2.22;;;7.10;99.90;;;;;;5073071;28;20205;-83
2020/12/24 03:01:43;;;;;;;2.17;2.05;;;7.10;99.90;;;;;;5073228;28;20184;-83
2020/12/24 03:04:09;;;;;;;1.95;1.85;;;7.10;99.90;;;;;;5072067;28;20223;-83
2020/12/24 03:06:36;;;;;;;2.40;2.00;;;7.10;99.90;;;;;;5077327;28;20183;-84
2020/12/24 03:09:06;;;;;;;2.03;1.65;;;7.10;99.90;;;;;;5077086;28;20188;-83
2020/12/24 03:11:33;;;;;;;3.20;2.00;;;7.00;99.90;;;;;;5077179;28;20219;-82
2020/12/24 03:14:06;;;;;;;1.85;1.70;;;7.00;99.90;;;;;;5077130;28;20225;-83
2020/12/24 03:16:32;;;;;;;1.55;1.42;;;6.90;99.90;;;;;;5075166;28;20216;-82
2020/12/24 03:18:59;;;;;;;2.55;2.35;;;6.90;99.90;;;;;;5073217;28;20211;-83
2020/12/24 03:21:25;;;;;;;1.98;1.80;;;6.90;99.90;;;;;;5073487;28;20203;-84
2020/12/24 03:23:52;;;;;;;2.58;2.17;;;6.80;99.90;;;;;;5075347;28;20244;-84
2020/12/24 03:26:19;;;;;;;1.85;1.75;;;6.80;99.90;;;;;;5080287;28;20212;-84
2020/12/24 03:28:53;;;;;;;1.60;1.50;;;6.80;99.90;;;;;;5080329;28;20201;-84
2020/12/24 03:31:23;;;;;;;2.38;1.90;;;6.70;99.90;;;;;;5076604;28;20196;-84
2020/12/24 03:33:50;;;;;;;2.35;2.10;;;6.80;99.90;;;;;;5077492;28;20224;-84
2020/12/24 03:36:16;;;;;;;2.47;1.88;;;6.70;99.90;;;;;;5077240;28;20224;-84
2020/12/24 03:38:43;;;;;;;2.35;1.75;;;6.70;99.90;;;;;;5075700;28;20213;-83
2020/12/24 03:41:10;;;;;;;2.38;2.03;;;6.70;99.90;;;;;;5076276;28;20211;-83
2020/12/24 03:43:38;;;;;;;2.30;1.55;;;6.70;99.90;;;;;;5077028;28;20197;-82
2020/12/24 03:46:05;;;;;;;2.55;1.88;;;6.70;99.90;;;;;;5077229;28;20189;-82
2020/12/24 03:48:31;;;;;;;5.18;1.65;;;6.70;99.90;;;;;;5060456;28;20235;-83
2020/12/24 03:50:58;;;;;;;2.13;1.88;;;6.60;99.90;;;;;;5051733;28;20224;-82
2020/12/24 03:53:25;;;;;;;2.30;1.55;;;6.60;99.90;;;;;;5051183;28;20210;-83
2020/12/24 03:55:53;;;;;;;2.40;1.60;;;6.50;99.90;;;;;;5049501;28;20212;-82
2020/12/24 03:58:19;;;;;;;1.95;1.10;;;6.50;99.90;;;;;;5057460;28;20205;-83
2020/12/24 04:00:47;;;;;;;4.43;1.77;;;6.50;99.90;;;;;;5070402;28;20251;-80
2020/12/24 04:03:13;;;;;;;1.50;1.38;;;6.40;99.90;;;;;;5079993;28;20179;-81
2020/12/24 04:05:40;;;;;;;1.73;1.20;;;6.40;99.90;;;;;;5079843;28;20207;-81
2020/12/24 04:08:07;;;;;;;1.55;1.15;;;6.40;99.90;;;;;;5079460;28;20219;-81
2020/12/24 04:10:33;;;;;;;2.25;1.40;;;6.40;99.90;;;;;;5079831;28;20177;-81
2020/12/24 04:13:00;;;;;;;1.33;1.05;;;6.30;99.90;;;;;;5079365;28;20195;-81
2020/12/24 04:15:27;;;;;;;4.60;2.47;;;6.30;99.90;;;;;;5079104;28;20232;-81
2020/12/24 04:17:55;;;;;;;0.80;0.80;;;6.20;99.90;;;;;;5077190;28;20208;-83
2020/12/24 04:20:22;;;;;;;1.75;0.73;;;6.10;99.90;;;;;;5074735;28;20211;-83
2020/12/24 04:22:48;;;;;;;0.80;0.80;;;6.10;99.90;;;;;;5069041;28;20203;-82
2020/12/24 04:25:15;;;;;;;0.70;0.70;;;6.10;99.90;;;;;;5069039;28;20223;-82
2020/12/24 04:27:47;;;;;;;1.35;0.88;;;6.00;99.90;;;;;;5063002;28;20568;-83
2020/12/24 04:30:14;;;;;;;1.15;0.80;;;5.90;99.90;;;;;;5046065;28;20307;-83
2020/12/24 04:32:40;;;;;;;1.20;0.88;;;5.90;99.90;;;;;;5041658;28;20192;-83
2020/12/24 04:35:08;;;;;;;1.42;0.70;;;5.90;99.90;;;;;;5040467;28;20228;-82
2020/12/24 04:37:34;;;;;;;2.20;1.27;;;6.00;99.90;;;;;;5045911;28;20823;-82
2020/12/24 04:40:01;;;;;;;1.38;1.00;;;5.90;99.90;;;;;;5045811;28;20239;-83
2020/12/24 04:42:28;;;;;;;2.00;0.82;;;5.90;99.90;;;;;;5058322;28;20238;-83
2020/12/24 04:44:55;;;;;;;1.08;0.90;;;5.90;99.90;;;;;;5058791;28;20577;-82
2020/12/24 04:47:21;;;;;;;0.90;0.70;;;5.90;99.90;;;;;;5059069;28;20202;-81
2020/12/24 04:49:49;;;;;;;1.75;1.20;;;5.80;99.90;;;;;;5059013;28;20203;-81
2020/12/24 04:52:16;;;;;;;4.80;1.23;;;5.90;99.90;;;;;;5057693;28;20196;-82
2020/12/24 04:54:43;;;;;;;2.40;1.20;;;5.80;99.90;;;;;;5051320;28;20219;-83
2020/12/24 04:57:10;;;;;;;2.05;1.17;;;5.70;99.90;;;;;;5050297;28;20211;-82
2020/12/24 04:59:37;;;;;;;2.10;1.52;;;5.70;99.90;;;;;;5066949;28;20200;-83
2020/12/24 05:02:05;;;;;;;1.90;1.40;;;5.70;99.90;;;;;;5067892;28;20207;-84
2020/12/24 05:04:33;;;;;;;2.20;1.55;;;5.70;99.90;;;;;;5068318;28;20281;-83
2020/12/24 05:07:04;;;;;;;5.78;1.83;;;5.70;99.90;;;;;;5067452;28;20183;-83
2020/12/24 05:09:31;;;;;;;2.13;1.75;;;5.70;99.90;;;;;;5066602;28;20203;-83
2020/12/24 05:11:58;;;;;;;2.10;1.90;;;5.70;99.90;;;;;;5066365;28;20617;-83
2020/12/24 05:14:25;;;;;;;2.33;2.13;;;5.60;99.90;;;;;;5065540;28;20699;-83
2020/12/24 05:17:03;;;;;;;3.35;2.15;;;5.60;99.90;;;;;;5064721;28;20219;-83
2020/12/24 05:19:30;;;;;;;5.20;1.90;;;5.60;99.90;;;;;;5064346;28;20203;-81
2020/12/24 05:21:58;;;;;;;3.20;2.60;;;5.60;99.90;;;;;;5068088;28;20199;-83
2020/12/24 05:24:26;;;;;;;2.70;2.13;;;5.50;99.90;;;;;;5064313;28;20310;-83
2020/12/24 05:27:06;;;;;;;2.17;1.83;;;5.50;99.90;;;;;;5064869;28;20200;-84
2020/12/24 05:29:35;;;;;;;2.67;2.17;;;5.50;99.90;;;;;;5065478;28;20218;-84
2020/12/24 05:32:02;;;;;;;2.17;1.60;;;5.50;99.90;;;;;;5065403;28;20203;-82
2020/12/24 05:34:29;;;;;;;2.17;1.58;;;5.40;99.90;;;;;;5066397;28;20259;-82
2020/12/24 05:37:10;;;;;;;2.00;1.70;;;5.40;99.90;;;;;;5069258;28;20227;-82
2020/12/24 05:39:38;;;;;;;1.67;1.20;;;5.40;99.90;;;;;;5057599;28;20199;-81
2020/12/24 05:42:07;;;;;;;1.80;1.40;;;5.40;99.90;;;;;;5065143;28;20220;-82
2020/12/24 05:44:33;;;;;;;2.50;1.33;;;5.40;99.90;;;;;;5065115;28;20234;-82
2020/12/24 05:47:00;;;;;;;1.85;1.45;;;5.40;99.90;;;;;;5075852;28;20194;-79
2020/12/24 05:49:28;;;;;;;3.28;1.70;;;5.30;99.90;;;;;;5053088;28;20207;-82
2020/12/24 05:51:56;;;;;;;1.65;1.55;;;5.30;99.90;;;;;;5059133;28;20274;-81
2020/12/24 05:54:23;;;;;;;3.78;2.40;;;5.30;99.90;;;;;;5060191;28;20219;-82
2020/12/24 05:56:49;;;;;;;3.58;2.35;;;5.30;99.90;;;;;;5069736;28;20215;-83
2020/12/24 05:59:19;;;;;;;3.17;2.80;;;5.30;99.90;;;;;;5073010;28;20218;-82
2020/12/24 06:02:00;;;;;;;4.10;2.97;;;5.40;99.90;;;;;;5072639;28;20208;-81
2020/12/24 06:04:43;;;;;;;2.70;2.42;;;5.40;99.90;;;;;;5069769;28;20223;-82
2020/12/24 06:07:10;;;;;;;7.10;3.50;;;5.40;99.90;;;;;;5066131;28;20202;-83
2020/12/24 06:09:38;;;;;;;4.70;3.10;;;5.30;99.90;;;;;;5069662;28;20234;-81
2020/12/24 06:12:17;;;;;;;4.95;3.75;;;5.30;99.90;;;;;;5075433;28;20208;-81
2020/12/24 06:14:48;;;;;;;4.10;3.53;;;5.30;99.90;;;;;;5073325;28;20227;-83
2020/12/24 06:17:17;;;;;;;4.07;3.65;;;5.30;99.90;;;;;;5064667;28;20217;-83
2020/12/24 06:19:44;;;;;;;6.18;3.92;;;5.30;99.90;;;;;;5057867;28;20225;-83
2020/12/24 06:22:11;;;;;;;8.55;4.53;;;5.40;99.90;;;;;;5062502;28;20575;-82
2020/12/24 06:24:40;;;;;;;5.22;3.30;;;5.40;99.90;;;;;;5063231;28;20250;-82
2020/12/24 06:27:16;;;;;;;3.50;2.72;;;5.40;99.90;;;;;;5064003;28;20215;-83
2020/12/24 06:29:48;;;;;;;4.47;3.22;;;5.40;99.90;;;;;;5062697;28;20202;-82
2020/12/24 06:32:19;;;;;;;4.53;2.80;;;5.40;99.90;;;;;;5060427;28;20203;-83
2020/12/24 06:34:46;;;;;;;4.68;3.30;;;5.50;99.90;;;;;;5064554;28;20227;-81
2020/12/24 06:37:17;;;;;;;3.75;3.15;;;5.50;99.90;;;;;;5063665;28;20207;-82
2020/12/24 06:39:46;;;;;;;7.03;3.53;;;5.50;99.90;;;;;;5065879;28;20203;-84
2020/12/24 06:42:38;;;;;;;6.05;3.65;;;5.50;99.90;;;;;;5067079;28;20199;-83
2020/12/24 06:45:09;;;;;;;4.63;3.42;;;5.50;99.90;;;;;;5066014;28;20236;-82
2020/12/24 06:47:37;;;;;;;7.22;4.10;;;5.50;99.90;;;;;;5058834;28;20306;-82
2020/12/24 06:50:34;;;;;;;3.55;3.13;;;5.50;99.90;;;;;;5059653;28;20199;-82
2020/12/24 06:53:19;;;;;;;5.25;3.90;;;5.50;99.90;;;;;;5045869;28;20208;-82
2020/12/24 06:56:17;;;;;;;4.50;3.17;;;5.50;99.90;;;;;;5044037;28;20220;-82
2020/12/24 06:58:45;;;;;;;3.42;2.83;;;5.50;99.90;;;;;;5044178;28;20287;-83
2020/12/24 07:01:15;;;;;;;5.18;3.10;;;5.50;99.90;;;;;;5051424;28;20187;-82
2020/12/24 07:03:42;;;;;;;7.63;3.70;;;5.50;99.90;;;;;;5070268;28;20318;-83
2020/12/24 07:06:09;;;;;;;4.15;3.28;;;5.50;99.90;;;;;;5072572;28;20226;-83
2020/12/24 07:08:47;;;;;;;7.25;3.40;;;5.50;99.90;;;;;;5079446;28;20188;-81
2020/12/24 07:11:40;;;;;;;7.55;2.65;;;5.50;99.90;;;;;;5080945;28;20214;-81
2020/12/24 07:14:23;;;;;;;3.25;2.80;;;5.60;99.90;;;;;;5080882;28;20239;-81
2020/12/24 07:16:52;;;;;;;3.42;2.90;;;5.50;99.90;;;;;;5080761;28;20215;-81
2020/12/24 07:19:19;;;;;;;5.85;2.92;;;5.50;99.90;;;;;;5076864;28;20216;-83
2020/12/24 07:21:48;;;;;;;4.75;2.10;;;5.50;99.90;;;;;;5046310;28;20204;-83
2020/12/24 07:24:17;;;;;;;3.83;1.75;;;5.50;99.90;;;;;;5042209;28;20220;-84
2020/12/24 07:26:44;;;;;;;6.60;2.38;;;5.50;99.90;;;;;;5043043;28;20310;-83
2020/12/24 07:29:14;;;;;;;3.08;2.55;;;5.50;99.90;;;;;;5043056;28;20250;-84
2020/12/24 07:31:41;;;;;;;2.53;2.13;;;5.50;99.90;;;;;;5045868;28;20204;-84
2020/12/24 07:34:08;;;;;;;6.43;2.30;;;5.50;99.90;;;;;;5045381;28;20235;-82
2020/12/24 07:36:55;;;;;;;5.38;2.85;;;5.50;99.90;;;;;;5044319;28;20248;-87
2020/12/24 07:39:30;;;;;;;3.33;2.90;;;5.50;99.90;;;;;;5054029;28;20481;-83
2020/12/24 07:41:57;;;;;;;6.35;2.20;;;5.50;99.90;;;;;;5039980;28;20212;-82
2020/12/24 07:44:24;;;;;;;3.10;2.65;;;5.50;99.90;;;;;;5054444;28;20219;-83
2020/12/24 07:46:52;;;;;;;6.85;2.28;;;5.50;99.90;;;;;;5055138;28;20222;-83
2020/12/24 07:49:20;;;;;;;3.58;2.60;;;5.60;99.90;;;;;;5059865;28;20211;-83
2020/12/24 07:51:54;;;;;;;3.42;2.40;;;5.60;99.90;;;;;;5071774;28;20208;-82
2020/12/24 07:54:24;;;;;;;4.35;2.28;;;5.60;99.90;;;;;;5070815;28;20226;-83
2020/12/24 07:56:50;;;;;;;3.25;2.33;;;5.70;99.90;;;;;;5067336;28;20219;-84
2020/12/24 07:59:17;;;;;;;3.50;2.42;;;5.70;99.90;;;;;;5071213;28;20207;-83
2020/12/24 08:01:44;;;;;;;3.25;2.20;;;5.70;99.90;;;;;;5068210;28;20199;-83
2020/12/24 08:04:11;;;;;;;2.15;1.88;;;5.70;99.90;;;;;;5068291;28;20227;-83
2020/12/24 08:06:56;;;;;;;3.92;3.10;;;5.80;99.90;;;;;;5068216;28;20200;-85
2020/12/24 08:16:14;;;;;;;4.40;2.05;;;5.80;99.90;;;;;;5006090;28;20292;-83
2020/12/24 08:19:13;;;;;;;1.98;1.73;;;5.80;99.90;;;;;;5066368;28;20206;-87
2020/12/24 08:21:51;;;;;;;3.50;2.10;;;5.80;99.90;;;;;;5056716;28;20200;-85
2020/12/24 08:24:21;;;;;;;3.38;2.03;;;5.90;99.90;;;;;;5064789;28;20231;-79
2020/12/24 08:27:05;;;;;;;2.80;2.00;;;5.90;99.90;;;;;;5078867;28;20227;-82
2020/12/24 08:29:36;;;;;;;4.05;2.22;;;6.00;99.90;;;;;;5078404;28;20210;-81
2020/12/24 08:32:52;;;;;;;2.90;1.48;;;6.00;99.90;;;;;;5078916;28;20183;-84
2020/12/24 08:38:59;;;;;;;4.35;2.90;;;6.00;99.90;;;;;;5067035;28;20210;-86
2020/12/24 08:41:25;;;;;;;4.25;2.25;;;6.00;99.90;;;;;;5057105;28;20206;-82
2020/12/24 08:43:55;;;;;;;4.05;2.10;;;6.10;99.90;;;;;;5061792;28;20228;-85
2020/12/24 08:49:46;;;;;;;4.30;3.90;;;6.30;99.90;;;;;;5048633;28;20215;-84
2020/12/24 08:52:17;;;;;;;6.43;2.20;;;6.30;99.90;;;;;;5044543;28;20192;-83
2020/12/24 08:55:03;;;;;;;2.03;1.85;;;6.40;99.90;;;;;;5041691;28;20228;-85
2020/12/24 08:57:30;;;;;;;4.75;2.20;;;6.60;99.90;;;;;;5040866;28;20216;-88
2020/12/24 08:59:57;;;;;;;4.82;2.55;;;6.60;99.90;;;;;;5039852;28;20222;-86
2020/12/24 09:02:25;;;;;;;3.30;1.80;;;6.60;99.90;;;;;;5038657;28;20212;-85
2020/12/24 09:04:56;;;;;;;3.15;1.70;;;6.60;99.90;;;;;;5056210;28;20230;-85
2020/12/24 09:07:27;;;;;;;6.18;3.10;;;6.70;99.90;;;;;;5058684;28;20208;-86
2020/12/24 09:10:09;;;;;;;2.53;1.90;;;6.70;99.90;;;;;;5058376;28;20211;-85
2020/12/24 09:12:37;;;;;;;8.05;3.00;;;6.70;99.90;;;;;;5051366;28;20199;-83
2020/12/24 09:15:06;;;;;;;4.95;3.60;;;6.70;99.90;;;;;;5059845;28;20250;-84
2020/12/24 09:17:33;;;;;;;5.53;3.00;;;6.60;99.90;;;;;;5060079;28;20212;-84
2020/12/24 09:20:04;;;;;;;7.78;3.58;;;6.70;99.90;;;;;;5058511;28;20201;-84
2020/12/24 09:22:31;;;;;;;7.03;5.00;;;6.80;99.90;;;;;;5038768;28;20231;-84
2020/12/24 09:24:59;;;;;;;10.43;6.68;;;6.80;99.90;;;;;;5044010;28;20611;-84
2020/12/24 09:27:26;;;;;;;10.02;6.15;;;6.80;99.90;;;;;;5040100;28;20228;-85
2020/12/24 09:29:53;;;;;;;10.50;6.13;;;6.80;99.90;;;;;;5039123;28;20192;-84
2020/12/24 09:32:20;;;;;;;6.55;4.78;;;6.70;99.90;;;;;;5038030;28;20212;-84
2020/12/24 09:34:47;;;;;;;8.80;5.65;;;6.80;99.90;;;;;;5037244;28;20229;-83
2020/12/24 09:37:27;;;;;;;8.23;5.05;;;6.80;99.90;;;;;;5037961;28;20555;-84
2020/12/24 09:39:56;;;;;;;9.57;5.60;;;6.70;99.90;;;;;;5038500;28;20214;-84
2020/12/24 09:42:22;;;;;;;10.57;4.85;;;6.70;99.90;;;;;;5021929;28;20580;-84
2020/12/24 09:44:50;;;;;;;9.80;3.25;;;6.80;99.90;;;;;;5038992;28;20232;-85
2020/12/24 09:47:16;;;;;;;6.75;4.72;;;6.70;99.90;;;;;;5046851;28;20212;-84
2020/12/24 09:49:43;;;;;;;6.47;3.90;;;6.80;99.90;;;;;;5070214;28;20267;-83
2020/12/24 09:52:09;;;;;;;11.25;5.80;;;6.80;99.90;;;;;;5073728;28;20200;-83
2020/12/24 09:54:36;;;;;;;6.25;4.15;;;6.80;99.90;;;;;;5075895;28;20223;-85
2020/12/24 09:57:03;;;;;;;7.65;3.90;;;6.90;99.90;;;;;;5063450;28;20235;-84
2020/12/24 09:59:29;;;;;;;8.70;5.00;;;6.80;99.90;;;;;;5073980;28;20255;-85
2020/12/24 10:01:57;;;;;;;7.78;5.68;;;6.90;99.90;;;;;;5045347;28;20211;-84
2020/12/24 10:04:23;;;;;;;7.10;5.82;;;6.90;99.90;;;;;;5047188;28;20221;-85
2020/12/24 10:06:50;;;;;;;9.40;6.45;;;6.90;99.90;;;;;;5044116;28;20213;-85
2020/12/24 10:09:17;;;;;;;9.90;6.63;;;6.90;99.90;;;;;;5039155;28;20185;-84
2020/12/24 10:11:46;;;;;;;6.97;6.05;;;6.90;99.90;;;;;;5039404;28;20205;-84
2020/12/24 10:14:13;;;;;;;13.38;7.60;;;6.80;99.90;;;;;;5037822;28;20296;-84
2020/12/24 10:16:39;;;;;;;13.32;7.13;;;6.80;99.90;;;;;;5037704;28;20223;-82
2020/12/24 10:19:07;;;;;;;8.48;7.07;;;6.90;99.90;;;;;;5044303;28;20204;-83
2020/12/24 10:21:34;;;;;;;11.90;8.25;;;7.00;99.90;;;;;;5053343;28;20210;-84
2020/12/24 10:24:01;;;;;;;9.40;7.68;;;7.00;99.90;;;;;;5038681;28;20226;-85
2020/12/24 10:26:27;;;;;;;8.15;6.80;;;7.00;99.90;;;;;;5038131;28;20277;-86
2020/12/24 10:28:54;;;;;;;8.27;6.28;;;7.00;99.90;;;;;;5039752;28;20489;-85
2020/12/24 10:31:20;;;;;;;6.93;5.80;;;7.10;99.90;;;;;;5038262;28;20264;-85
2020/12/24 10:33:47;;;;;;;9.82;5.97;;;7.10;99.90;;;;;;5038045;28;20231;-85
2020/12/24 10:36:23;;;;;;;10.43;5.10;;;7.00;99.90;;;;;;5040890;28;20216;-84
2020/12/24 10:38:50;;;;;;;9.75;5.97;;;7.00;99.90;;;;;;5059510;28;20203;-86
2020/12/24 10:41:17;;;;;;;10.75;5.80;;;7.00;99.90;;;;;;5058582;28;20204;-85
2020/12/24 10:43:43;;;;;;;13.13;6.65;;;7.10;99.90;;;;;;5075964;28;20214;-83
2020/12/24 10:46:15;;;;;;;13.15;6.43;;;7.00;99.90;;;;;;5076930;28;20342;-86
2020/12/24 10:48:42;;;;;;;11.45;6.45;;;7.10;99.90;;;;;;5081233;28;20209;-85
2020/12/24 10:51:09;;;;;;;12.45;6.05;;;7.10;99.90;;;;;;5062290;28;20214;-85
2020/12/24 10:53:36;;;;;;;9.48;5.97;;;7.10;99.90;;;;;;5077029;28;20261;-85
2020/12/24 10:56:03;;;;;;;7.85;6.25;;;7.10;99.90;;;;;;5081402;28;20246;-87
2020/12/24 10:58:29;;;;;;;10.57;5.32;;;7.10;99.90;;;;;;5089812;28;20302;-84
2020/12/24 11:00:56;;;;;;;7.70;5.78;;;7.10;99.90;;;;;;5077080;28;20199;-85
2020/12/24 11:03:27;;;;;;;10.10;6.18;;;7.10;99.90;;;;;;5066854;28;20209;-87
2020/12/24 11:05:54;;;;;;;8.40;5.00;;;7.10;99.90;;;;;;5068454;28;20216;-86
2020/12/24 11:08:20;;;;;;;6.72;5.47;;;7.20;99.90;;;;;;5064687;28;20205;-86
2020/12/24 11:10:48;;;;;;;17.20;6.15;;;7.20;99.90;;;;;;5069097;28;20204;-85
2020/12/24 11:13:14;;;;;;;9.57;6.07;;;7.30;99.90;;;;;;5075819;28;20189;-86
2020/12/24 11:15:41;;;;;;;11.48;5.55;;;7.50;99.90;;;;;;5075660;28;20222;-87
2020/12/24 11:18:08;;;;;;;8.73;5.55;;;7.50;99.90;;;;;;5110919;23;20251;-85
2020/12/24 11:20:34;;;;;;;8.25;4.93;;;7.60;99.90;;;;;;5061637;28;20266;-85
2020/12/24 11:23:20;;;;;;;7.50;5.38;;;7.60;99.90;;;;;;5069384;28;20214;-86
2020/12/24 11:26:25;;;;;;;10.57;5.88;;;7.70;99.90;;;;;;5069709;28;20195;-86
2020/12/24 11:29:21;;;;;;;7.65;5.35;;;7.80;99.90;;;;;;5058215;28;20222;-84
2020/12/24 11:31:48;;;;;;;10.27;5.80;;;7.90;99.90;;;;;;5075025;28;20194;-82
2020/12/24 11:34:15;;;;;;;7.65;5.75;;;7.90;99.90;;;;;;5071384;28;20191;-86
2020/12/24 11:36:45;;;;;;;9.57;5.82;;;7.80;99.90;;;;;;5070616;28;20214;-86
2020/12/24 11:39:11;;;;;;;7.10;5.70;;;7.80;99.90;;;;;;5064526;28;20277;-86
2020/12/24 11:41:39;;;;;;;15.77;6.97;;;7.70;99.90;;;;;;5066867;28;20201;-83
2020/12/24 11:44:07;;;;;;;10.07;5.88;;;7.80;99.90;;;;;;5072408;28;20194;-82
2020/12/24 11:46:33;;;;;;;7.85;6.30;;;7.90;99.90;;;;;;5073797;28;20198;-84
2020/12/24 11:49:00;;;;;;;12.25;6.00;;;8.00;99.90;;;;;;5074880;28;20298;-85
2020/12/24 11:51:27;;;;;;;8.05;5.57;;;8.00;99.90;;;;;;5074758;28;20201;-85
2020/12/24 11:53:54;;;;;;;8.90;6.10;;;8.00;99.90;;;;;;5072669;28;20221;-84
2020/12/24 11:56:22;;;;;;;9.95;5.95;;;7.90;99.90;;;;;;5071329;28;20222;-84
2020/12/24 11:58:51;;;;;;;9.95;7.00;;;8.00;99.90;;;;;;5074064;28;20324;-84
2020/12/24 12:01:19;;;;;;;16.20;6.78;;;8.00;99.90;;;;;;5069026;28;20214;-85
2020/12/24 12:03:46;;;;;;;9.23;6.18;;;8.10;99.90;;;;;;5065600;28;20226;-85
2020/12/24 12:06:13;;;;;;;9.40;6.60;;;8.00;99.90;;;;;;5060977;28;20193;-83
2020/12/24 12:08:42;;;;;;;8.65;6.05;;;8.10;99.90;;;;;;5072513;28;20256;-82
2020/12/24 12:11:09;;;;;;;9.48;6.30;;;8.10;99.90;;;;;;5077163;28;20219;-82
2020/12/24 12:13:37;;;;;;;14.52;8.25;;;8.10;99.90;;;;;;5073869;28;20198;-83
2020/12/24 12:16:07;;;;;;;12.43;7.15;;;8.10;99.90;;;;;;5057927;28;20211;-82
2020/12/24 12:18:35;;;;;;;13.73;8.18;;;8.20;99.90;;;;;;5064214;28;20400;-84
2020/12/24 12:21:01;;;;;;;18.17;8.57;;;8.20;99.90;;;;;;5085934;28;20209;-83
2020/12/24 12:23:28;;;;;;;17.40;9.88;;;8.20;99.90;;;;;;5078050;28;20222;-86
2020/12/24 12:25:55;;;;;;;10.45;7.05;;;8.30;99.90;;;;;;5077955;28;20199;-87
2020/12/24 12:28:21;;;;;;;13.32;8.23;;;8.30;99.90;;;;;;5068540;28;20222;-86
2020/12/24 12:30:48;;;;;;;11.00;6.53;;;8.30;99.90;;;;;;5061702;28;20175;-85
2020/12/24 12:33:15;;;;;;;9.85;7.97;;;8.30;99.90;;;;;;5061949;28;20211;-87
2020/12/24 12:35:42;;;;;;;7.22;5.82;;;8.20;99.90;;;;;;5062111;28;20242;-88
2020/12/24 12:38:09;;;;;;;16.55;6.70;;;8.20;99.90;;;;;;5064881;28;20630;-85
2020/12/24 12:40:35;;;;;;;13.63;7.50;;;8.30;99.90;;;;;;5064824;28;20436;-88
2020/12/24 12:43:02;;;;;;;16.83;6.80;;;8.30;99.90;;;;;;5078153;28;20555;-88
2020/12/24 12:45:29;;;;;;;15.70;6.50;;;8.30;99.90;;;;;;5064228;28;20345;-87
2020/12/24 12:47:55;;;;;;;11.25;5.20;;;8.20;99.90;;;;;;5064987;28;20260;-85
2020/12/24 12:50:26;;;;;;;8.30;5.50;;;8.10;99.90;;;;;;5080894;28;20206;-87
2020/12/24 12:52:53;;;;;;;8.18;4.95;;;8.00;99.90;;;;;;5087787;28;20190;-88
2020/12/24 12:55:24;;;;;;;7.20;4.43;;;8.00;99.90;;;;;;5093720;28;20206;-88
2020/12/24 12:57:51;;;;;;;8.60;3.67;;;8.00;99.90;;;;;;5095667;28;20203;-86
2020/12/24 13:00:17;;;;;;;10.52;3.72;;;8.00;99.90;;;;;;5091751;28;20206;-85
2020/12/24 13:02:44;;;;;;;5.70;3.70;;;8.00;99.90;;;;;;5082880;28;20216;-84
2020/12/24 13:05:11;;;;;;;10.95;3.50;;;8.00;99.90;;;;;;5084647;28;20206;-85
2020/12/24 13:07:41;;;;;;;5.28;3.72;;;8.10;99.90;;;;;;5081097;28;20398;-89
2020/12/24 13:10:08;;;;;;;3.42;2.20;;;8.10;99.90;;;;;;5070913;28;20233;-86
2020/12/24 13:12:35;;;;;;;9.27;3.08;;;8.20;99.90;;;;;;5060585;28;20231;-86
2020/12/24 13:15:01;;;;;;;9.63;2.78;;;8.20;99.90;;;;;;5078818;28;20202;-87
2020/12/24 13:17:28;;;;;;;4.40;2.50;;;8.20;99.90;;;;;;5082855;28;20767;-88
2020/12/24 13:19:55;;;;;;;9.60;3.05;;;8.20;99.90;;;;;;5077201;28;20237;-86